createdAt,value
2018-01-19T00:00:41.199Z,2.81
2018-01-19T00:01:41.028Z,2.85
2018-01-19T00:02:42.046Z,2.81
2018-01-19T00:03:42.830Z,2.9
2018-01-19T00:04:41.851Z,2.93
2018-01-19T00:05:41.752Z,2.88
2018-01-19T00:06:41.933Z,2.95
2018-01-19T00:07:42.452Z,2.88
2018-01-19T00:08:42.553Z,2.85
2018-01-19T00:09:42.947Z,2.87
2018-01-19T00:10:43.274Z,2.85
2018-01-19T00:11:43.793Z,2.87
2018-01-19T00:12:43.613Z,2.85
2018-01-19T00:13:43.372Z,2.85
2018-01-19T00:14:44.360Z,2.81
2018-01-19T00:15:43.410Z,2.91
2018-01-19T00:16:43.838Z,2.93
2018-01-19T00:17:44.674Z,2.81
2018-01-19T00:18:44.260Z,2.88
2018-01-19T00:19:44.195Z,2.85
2018-01-19T00:20:44.476Z,2.87
2018-01-19T00:21:44.508Z,2.84
2018-01-19T00:22:45.035Z,2.88
2018-01-19T00:23:45.212Z,2.84
2018-01-19T00:24:44.994Z,2.84
2018-01-19T00:25:44.572Z,2.85
2018-01-19T00:26:45.449Z,2.81
2018-01-19T00:27:45.849Z,2.87
2018-01-19T00:28:46.586Z,2.83
2018-01-19T00:29:47.151Z,2.87
2018-01-19T00:30:46.159Z,2.88
2018-01-19T00:31:46.967Z,2.91
2018-01-19T00:32:46.422Z,2.88
2018-01-19T00:33:45.874Z,2.88
2018-01-19T00:34:46.428Z,2.87
2018-01-19T00:35:46.962Z,2.85
2018-01-19T00:36:47.000Z,2.9
2018-01-19T00:37:46.431Z,2.85
2018-01-19T00:38:46.856Z,2.85
2018-01-19T00:39:46.632Z,2.85
2018-01-19T00:40:46.344Z,2.84
2018-01-19T00:41:46.344Z,2.85
2018-01-19T00:42:47.454Z,2.85
2018-01-19T00:43:46.517Z,2.91
2018-01-19T00:44:46.396Z,2.91
2018-01-19T00:45:46.463Z,2.95
2018-01-19T00:46:46.594Z,2.95
2018-01-19T00:47:46.427Z,2.87
2018-01-19T00:48:46.776Z,2.87
2018-01-19T00:49:46.716Z,2.87
2018-01-19T00:50:46.385Z,2.91
2018-01-19T00:51:46.761Z,2.96
2018-01-19T00:52:46.653Z,2.9
2018-01-19T00:53:46.631Z,2.96
2018-01-19T00:54:46.888Z,2.87
2018-01-19T00:55:46.808Z,2.93
2018-01-19T00:56:46.910Z,2.91
2018-01-19T00:57:46.814Z,2.91
2018-01-19T00:58:46.991Z,3.01
2018-01-19T00:59:47.285Z,2.9
2018-01-19T01:00:47.578Z,2.98
2018-01-19T01:01:47.452Z,2.98
2018-01-19T01:02:47.820Z,2.91
2018-01-19T01:03:48.546Z,2.99
2018-01-19T01:04:47.890Z,2.96
2018-01-19T01:05:47.612Z,2.95
2018-01-19T01:06:47.924Z,3.01
2018-01-19T01:07:48.246Z,3.02
2018-01-19T01:08:48.476Z,2.9
2018-01-19T01:09:48.531Z,2.98
2018-01-19T01:10:48.405Z,2.85
2018-01-19T01:11:49.117Z,3.01
2018-01-19T01:12:49.640Z,2.99
2018-01-19T01:13:49.122Z,3.01
2018-01-19T01:14:48.971Z,2.98
2018-01-19T01:15:49.470Z,3.01
2018-01-19T01:16:49.505Z,2.93
2018-01-19T01:17:49.502Z,3.01
2018-01-19T01:18:51.354Z,2.9
2018-01-19T01:19:50.108Z,2.99
2018-01-19T01:20:50.813Z,3.02
2018-01-19T01:21:51.267Z,2.95
2018-01-19T01:22:51.268Z,2.96
2018-01-19T01:23:51.056Z,2.95
2018-01-19T01:24:52.105Z,2.96
2018-01-19T01:25:51.622Z,2.93
2018-01-19T01:26:53.405Z,2.98
2018-01-19T01:27:53.158Z,3.03
2018-01-19T01:28:52.636Z,3.01
2018-01-19T01:29:52.809Z,2.99
2018-01-19T01:30:53.676Z,3.01
2018-01-19T01:31:53.962Z,2.99
2018-01-19T01:32:53.364Z,3.01
2018-01-19T01:33:53.673Z,2.98
2018-01-19T01:34:53.910Z,2.98
2018-01-19T01:35:54.480Z,2.98
2018-01-19T01:36:54.720Z,2.98
2018-01-19T01:37:55.062Z,2.98
2018-01-19T01:38:53.210Z,2.99
2018-01-19T01:39:54.116Z,2.99
2018-01-19T01:40:53.992Z,2.93
2018-01-19T01:41:53.523Z,3.02
2018-01-19T01:42:54.980Z,2.98
2018-01-19T01:43:55.064Z,3.01
2018-01-19T01:44:55.142Z,2.98
2018-01-19T01:45:54.865Z,3.06
2018-01-19T01:46:54.733Z,3.02
2018-01-19T01:47:55.059Z,3.01
2018-01-19T01:48:54.869Z,3.06
2018-01-19T01:49:55.583Z,3.02
2018-01-19T01:50:55.212Z,3.06
2018-01-19T01:51:55.711Z,3.01
2018-01-19T01:52:54.508Z,2.96
2018-01-19T01:53:55.479Z,3.11
2018-01-19T01:54:55.076Z,2.96
2018-01-19T01:55:55.455Z,2.96
2018-01-19T01:56:55.749Z,3.01
2018-01-19T01:57:54.545Z,3.05
2018-01-19T01:58:55.262Z,3.01
2018-01-19T01:59:54.905Z,3.13
2018-01-19T02:00:55.616Z,3.06
2018-01-19T02:01:55.426Z,2.98
2018-01-19T02:02:54.290Z,3.06
2018-01-19T02:03:55.891Z,2.95
2018-01-19T02:04:55.566Z,3.02
2018-01-19T02:05:55.670Z,3.09
2018-01-19T02:06:55.238Z,3.05
2018-01-19T02:07:55.009Z,2.99
2018-01-19T02:08:54.451Z,2.93
2018-01-19T02:09:56.174Z,3.01
2018-01-19T02:10:56.263Z,3.02
2018-01-19T02:11:56.397Z,3.05
2018-01-19T02:12:55.468Z,3.11
2018-01-19T02:13:55.844Z,3.06
2018-01-19T02:14:56.393Z,3.01
2018-01-19T02:15:56.496Z,3.01
2018-01-19T02:16:56.014Z,2.96
2018-01-19T02:17:56.909Z,3.01
2018-01-19T02:18:56.710Z,3.05
2018-01-19T02:19:55.627Z,3.01
2018-01-19T02:20:56.591Z,3.01
2018-01-19T02:21:55.914Z,3.03
2018-01-19T02:22:55.974Z,3.02
2018-01-19T02:23:56.775Z,3.14
2018-01-19T02:24:56.637Z,2.95
2018-01-19T02:25:55.562Z,3.05
2018-01-19T02:26:55.485Z,2.98
2018-01-19T02:27:55.411Z,3.05
2018-01-19T02:28:55.941Z,2.98
2018-01-19T02:29:56.238Z,3.03
2018-01-19T02:30:56.017Z,3.05
2018-01-19T02:31:55.976Z,3.09
2018-01-19T02:32:56.313Z,2.93
2018-01-19T02:33:56.009Z,3.14
2018-01-19T02:34:55.851Z,2.99
2018-01-19T02:35:55.805Z,3.09
2018-01-19T02:36:55.805Z,3.09
2018-01-19T02:37:56.295Z,2.96
2018-01-19T02:38:56.402Z,2.98
2018-01-19T02:39:56.325Z,3.02
2018-01-19T02:40:57.043Z,3.05
2018-01-19T02:41:56.211Z,3.02
2018-01-19T02:42:57.707Z,3.13
2018-01-19T02:43:56.602Z,3.02
2018-01-19T02:44:56.865Z,3.09
2018-01-19T02:45:56.955Z,3.09
2018-01-19T02:46:56.913Z,3.08
2018-01-19T02:47:56.901Z,2.98
2018-01-19T02:48:57.063Z,2.96
2018-01-19T02:49:57.875Z,3.05
2018-01-19T02:50:57.572Z,3.02
2018-01-19T02:51:57.448Z,2.99
2018-01-19T02:52:57.431Z,2.99
2018-01-19T02:53:58.036Z,3.09
2018-01-19T02:54:58.501Z,3.13
2018-01-19T02:55:57.995Z,3.01
2018-01-19T02:56:58.257Z,2.99
2018-01-19T02:57:58.441Z,3.01
2018-01-19T02:58:58.933Z,2.95
2018-01-19T02:59:58.976Z,2.95
2018-01-19T03:00:58.817Z,2.98
2018-01-19T03:02:00.364Z,2.98
2018-01-19T03:02:59.880Z,2.96
2018-01-19T03:04:00.174Z,3.05
2018-01-19T03:05:00.090Z,2.98
2018-01-19T03:06:00.361Z,3.01
2018-01-19T03:07:00.202Z,2.96
2018-01-19T03:08:00.408Z,2.93
2018-01-19T03:09:00.604Z,2.98
2018-01-19T03:10:00.048Z,2.98
2018-01-19T03:11:00.217Z,2.96
2018-01-19T03:12:00.717Z,3.01
2018-01-19T03:12:59.030Z,2.95
2018-01-19T03:13:59.014Z,2.98
2018-01-19T03:15:00.646Z,2.88
2018-01-19T03:16:00.035Z,2.96
2018-01-19T03:17:00.862Z,2.95
2018-01-19T03:18:01.029Z,2.93
2018-01-19T03:19:00.904Z,2.91
2018-01-19T03:19:59.645Z,2.96
2018-01-19T03:20:59.672Z,2.91
2018-01-19T03:21:59.967Z,2.88
2018-01-19T03:23:00.004Z,2.88
2018-01-19T03:24:00.031Z,2.95
2018-01-19T03:24:59.507Z,2.85
2018-01-19T03:26:00.335Z,2.87
2018-01-19T03:27:00.024Z,2.88
2018-01-19T03:28:00.237Z,2.87
2018-01-19T03:29:00.747Z,2.9
2018-01-19T03:30:00.722Z,2.83
2018-01-19T03:31:00.951Z,2.83
2018-01-19T03:32:01.205Z,2.93
2018-01-19T03:33:01.261Z,2.85
2018-01-19T03:34:00.907Z,2.85
2018-01-19T03:35:01.311Z,2.91
2018-01-19T03:36:01.256Z,2.96
2018-01-19T03:37:01.517Z,2.91
2018-01-19T03:38:01.541Z,2.9
2018-01-19T03:39:01.727Z,2.99
2018-01-19T03:40:01.825Z,2.95
2018-01-19T03:41:01.625Z,2.95
2018-01-19T03:42:01.889Z,2.91
2018-01-19T03:43:01.684Z,2.96
2018-01-19T03:44:01.244Z,2.98
2018-01-19T03:45:01.936Z,2.87
2018-01-19T03:46:01.953Z,2.98
2018-01-19T03:47:01.886Z,2.99
2018-01-19T03:48:02.090Z,2.98
2018-01-19T03:49:01.957Z,2.95
2018-01-19T03:50:02.134Z,2.99
2018-01-19T03:51:02.541Z,2.88
2018-01-19T03:52:02.964Z,2.91
2018-01-19T03:53:02.332Z,2.85
2018-01-19T03:54:02.656Z,3.01
2018-01-19T03:55:02.890Z,2.96
2018-01-19T03:56:02.116Z,3.01
2018-01-19T03:57:02.372Z,2.91
2018-01-19T03:58:02.577Z,2.9
2018-01-19T03:59:02.471Z,2.99
2018-01-19T04:01:02.093Z,2.99
2018-01-19T04:02:02.512Z,2.87
2018-01-19T04:03:03.173Z,2.91
2018-01-19T04:04:03.044Z,2.85
2018-01-19T04:05:03.179Z,2.87
2018-01-19T04:06:03.116Z,2.85
2018-01-19T04:07:02.845Z,2.91
2018-01-19T04:08:02.915Z,2.88
2018-01-19T04:09:03.543Z,2.91
2018-01-19T04:10:03.760Z,2.93
2018-01-19T04:11:02.942Z,2.9
2018-01-19T04:12:02.875Z,2.85
2018-01-19T04:13:03.289Z,2.87
2018-01-19T04:14:03.317Z,2.8
2018-01-19T04:15:03.536Z,2.83
2018-01-19T04:16:03.004Z,2.83
2018-01-19T04:17:03.816Z,2.78
2018-01-19T04:18:03.839Z,2.78
2018-01-19T04:19:03.717Z,2.76
2018-01-19T04:20:03.576Z,2.7
2018-01-19T04:21:03.259Z,2.77
2018-01-19T04:22:03.860Z,2.76
2018-01-19T04:23:03.877Z,2.77
2018-01-19T04:24:03.881Z,2.87
2018-01-19T04:25:18.985Z,2.91
2018-01-19T04:26:18.800Z,2.91
2018-01-19T04:27:18.967Z,2.7
2018-01-19T04:28:18.764Z,2.78
2018-01-19T04:29:18.958Z,2.81
2018-01-19T04:30:19.066Z,2.7
2018-01-19T04:31:19.028Z,2.76
2018-01-19T04:32:19.473Z,2.8
2018-01-19T04:33:19.343Z,2.78
2018-01-19T04:34:19.637Z,2.84
2018-01-19T04:35:19.432Z,2.83
2018-01-19T04:36:19.594Z,2.73
2018-01-19T04:37:20.007Z,2.78
2018-01-19T04:38:19.721Z,2.91
2018-01-19T04:39:19.460Z,2.81
2018-01-19T04:40:20.242Z,2.87
2018-01-19T04:41:19.460Z,2.81
2018-01-19T04:42:19.959Z,2.81
2018-01-19T04:43:20.091Z,2.81
2018-01-19T04:44:20.051Z,2.81
2018-01-19T04:45:19.967Z,2.87
2018-01-19T04:46:20.169Z,2.84
2018-01-19T04:47:21.281Z,2.87
2018-01-19T04:48:20.144Z,2.83
2018-01-19T04:49:20.673Z,2.8
2018-01-19T04:50:20.311Z,2.84
2018-01-19T04:51:19.747Z,2.81
2018-01-19T04:52:20.691Z,2.87
2018-01-19T04:53:20.596Z,2.8
2018-01-19T04:54:20.769Z,2.84
2018-01-19T04:55:20.701Z,2.83
2018-01-19T04:56:20.337Z,2.81
2018-01-19T04:57:20.778Z,2.87
2018-01-19T04:58:20.689Z,2.85
2018-01-19T04:59:20.599Z,2.87
2018-01-19T05:00:20.683Z,2.81
2018-01-19T05:01:21.175Z,2.83
2018-01-19T05:02:21.575Z,2.81
2018-01-19T05:03:21.236Z,2.88
2018-01-19T05:04:21.524Z,2.81
2018-01-19T05:05:21.319Z,2.76
2018-01-19T05:06:21.014Z,2.8
2018-01-19T05:07:21.450Z,2.81
2018-01-19T05:08:21.448Z,2.73
2018-01-19T05:09:21.970Z,2.69
2018-01-19T05:10:22.012Z,2.73
2018-01-19T05:11:21.835Z,2.7
2018-01-19T05:12:21.829Z,2.72
2018-01-19T05:13:22.563Z,2.69
2018-01-19T05:14:22.384Z,2.69
2018-01-19T05:15:21.793Z,2.73
2018-01-19T05:16:22.473Z,2.69
2018-01-19T05:17:22.405Z,2.58
2018-01-19T05:18:22.478Z,2.67
2018-01-19T05:19:23.638Z,2.67
2018-01-19T05:20:23.240Z,2.66
2018-01-19T05:21:22.699Z,2.67
2018-01-19T05:22:23.355Z,2.6
2018-01-19T05:23:23.542Z,2.55
2018-01-19T05:24:23.711Z,2.6
2018-01-19T05:25:23.376Z,2.63
2018-01-19T05:26:23.891Z,2.54
2018-01-19T05:27:23.853Z,2.58
2018-01-19T05:28:24.552Z,2.65
2018-01-19T05:29:24.729Z,2.67
2018-01-19T05:30:24.165Z,2.55
2018-01-19T05:31:24.280Z,2.6
2018-01-19T05:32:25.173Z,2.58
2018-01-19T05:33:25.019Z,2.6
2018-01-19T05:34:25.437Z,2.6
2018-01-19T05:35:25.440Z,2.63
2018-01-19T05:36:25.295Z,2.52
2018-01-19T05:37:26.156Z,2.54
2018-01-19T05:38:25.790Z,2.58
2018-01-19T05:39:25.549Z,2.58
2018-01-19T05:40:25.679Z,2.52
2018-01-19T05:41:26.948Z,2.59
2018-01-19T05:42:26.625Z,2.55
2018-01-19T05:43:27.524Z,2.6
2018-01-19T05:44:25.985Z,2.58
2018-01-19T05:45:26.563Z,2.48
2018-01-19T05:46:26.991Z,2.49
2018-01-19T05:47:26.468Z,2.48
2018-01-19T05:48:27.033Z,2.52
2018-01-19T05:49:27.293Z,2.54
2018-01-19T05:50:27.296Z,2.47
2018-01-19T05:51:27.585Z,2.48
2018-01-19T05:52:27.225Z,2.52
2018-01-19T05:53:27.189Z,2.54
2018-01-19T05:54:27.465Z,2.49
2018-01-19T05:55:27.936Z,2.58
2018-01-19T05:56:28.064Z,2.59
2018-01-19T05:57:29.082Z,2.63
2018-01-19T05:58:27.685Z,2.63
2018-01-19T05:59:28.034Z,2.58
2018-01-19T06:00:28.043Z,2.52
2018-01-19T06:01:28.056Z,2.52
2018-01-19T06:02:28.076Z,2.6
2018-01-19T06:03:28.154Z,2.63
2018-01-19T06:04:27.878Z,2.65
2018-01-19T06:05:28.853Z,2.54
2018-01-19T06:06:28.517Z,2.62
2018-01-19T06:07:28.401Z,2.6
2018-01-19T06:08:29.500Z,2.62
2018-01-19T06:09:28.729Z,2.62
2018-01-19T06:10:28.434Z,2.55
2018-01-19T06:11:29.365Z,2.59
2018-01-19T06:12:28.759Z,2.63
2018-01-19T06:13:28.726Z,2.59
2018-01-19T06:14:28.876Z,2.63
2018-01-19T06:15:29.196Z,2.54
2018-01-19T06:16:29.478Z,2.49
2018-01-19T06:17:29.201Z,2.42
2018-01-19T06:18:29.583Z,2.42
2018-01-19T06:19:29.344Z,2.49
2018-01-19T06:20:30.944Z,2.44
2018-01-19T06:21:30.000Z,2.48
2018-01-19T06:22:30.577Z,2.42
2018-01-19T06:23:30.587Z,2.48
2018-01-19T06:24:30.288Z,2.49
2018-01-19T06:25:30.657Z,2.48
2018-01-19T06:26:30.947Z,2.45
2018-01-19T06:27:30.650Z,2.54
2018-01-19T06:28:31.010Z,2.47
2018-01-19T06:29:31.500Z,2.54
2018-01-19T06:30:31.606Z,2.59
2018-01-19T06:31:30.914Z,2.7
2018-01-19T06:32:31.420Z,2.69
2018-01-19T06:33:30.762Z,2.72
2018-01-19T06:34:31.197Z,2.77
2018-01-19T06:35:32.221Z,2.78
2018-01-19T06:36:30.983Z,2.76
2018-01-19T06:37:31.659Z,2.83
2018-01-19T06:38:31.562Z,2.84
2018-01-19T06:39:32.267Z,2.9
2018-01-19T06:40:31.893Z,2.84
2018-01-19T06:41:32.173Z,2.91
2018-01-19T06:42:32.407Z,2.88
2018-01-19T06:43:32.951Z,2.93
2018-01-19T06:44:32.766Z,2.9
2018-01-19T06:45:32.934Z,2.9
2018-01-19T06:46:32.822Z,2.91
2018-01-19T06:47:32.873Z,3.01
2018-01-19T06:48:33.105Z,3.03
2018-01-19T06:49:33.317Z,2.87
2018-01-19T06:50:33.283Z,2.91
2018-01-19T06:51:33.426Z,2.91
2018-01-19T06:52:33.782Z,2.91
2018-01-19T06:53:33.805Z,2.98
2018-01-19T06:54:33.296Z,2.96
2018-01-19T06:55:34.027Z,2.98
2018-01-19T06:56:34.439Z,2.96
2018-01-19T06:57:34.257Z,2.96
2018-01-19T06:58:34.225Z,3.03
2018-01-19T06:59:34.552Z,3.01
2018-01-19T07:00:34.759Z,3.01
2018-01-19T07:01:34.517Z,2.96
2018-01-19T07:02:34.815Z,2.85
2018-01-19T07:03:34.538Z,2.88
2018-01-19T07:04:34.650Z,2.87
2018-01-19T07:05:34.603Z,2.85
2018-01-19T07:06:34.793Z,2.88
2018-01-19T07:07:35.019Z,2.83
2018-01-19T07:08:35.094Z,2.85
2018-01-19T07:09:35.241Z,2.9
2018-01-19T07:10:35.453Z,2.9
2018-01-19T07:11:35.108Z,2.83
2018-01-19T07:12:34.966Z,2.83
2018-01-19T07:13:35.675Z,2.81
2018-01-19T07:14:35.184Z,2.83
2018-01-19T07:15:35.303Z,2.78
2018-01-19T07:16:35.819Z,2.81
2018-01-19T07:17:35.497Z,2.78
2018-01-19T07:18:36.194Z,2.78
2018-01-19T07:19:36.221Z,2.85
2018-01-19T07:20:35.952Z,2.83
2018-01-19T07:21:35.822Z,2.95
2018-01-19T07:22:35.928Z,2.91
2018-01-19T07:23:36.144Z,2.91
2018-01-19T07:24:37.954Z,2.85
2018-01-19T07:25:36.478Z,2.85
2018-01-19T07:26:36.431Z,2.91
2018-01-19T07:27:36.274Z,2.87
2018-01-19T07:28:36.701Z,2.9
2018-01-19T07:29:36.698Z,2.85
2018-01-19T07:30:36.495Z,2.9
2018-01-19T07:31:37.658Z,2.84
2018-01-19T07:32:36.852Z,2.87
2018-01-19T07:33:37.461Z,2.95
2018-01-19T07:34:37.649Z,2.87
2018-01-19T07:35:37.399Z,3.01
2018-01-19T07:36:38.082Z,2.95
2018-01-19T07:37:38.131Z,2.9
2018-01-19T07:38:38.548Z,2.99
2018-01-19T07:39:38.708Z,3.01
2018-01-19T07:40:38.709Z,2.98
2018-01-19T07:41:38.717Z,3.01
2018-01-19T07:42:38.640Z,2.98
2018-01-19T07:43:38.856Z,2.98
2018-01-19T07:44:39.130Z,3.01
2018-01-19T07:45:38.899Z,3.01
2018-01-19T07:46:39.265Z,2.93
2018-01-19T07:47:39.462Z,2.98
2018-01-19T07:48:39.448Z,3.01
2018-01-19T07:49:39.728Z,2.98
2018-01-19T07:50:39.799Z,2.99
2018-01-19T07:51:39.498Z,2.96
2018-01-19T07:52:39.970Z,3.02
2018-01-19T07:53:40.238Z,3.02
2018-01-19T07:54:40.369Z,3.03
2018-01-19T07:55:40.277Z,3.11
2018-01-19T07:56:40.011Z,3.08
2018-01-19T07:57:41.245Z,3.11
2018-01-19T07:58:41.347Z,3.09
2018-01-19T07:59:40.947Z,3.09
2018-01-19T08:00:40.737Z,3.08
2018-01-19T08:01:40.855Z,3.09
2018-01-19T08:02:42.351Z,3.09
2018-01-19T08:03:40.925Z,3.08
2018-01-19T08:04:40.995Z,3.06
2018-01-19T08:05:40.809Z,3.13
2018-01-19T08:06:43.022Z,3.13
2018-01-19T08:07:41.882Z,3.14
2018-01-19T08:08:42.412Z,3.2
2018-01-19T08:09:43.463Z,3.17
2018-01-19T08:10:42.249Z,3.24
2018-01-19T08:11:42.525Z,3.19
2018-01-19T08:12:42.535Z,3.24
2018-01-19T08:13:42.833Z,3.21
2018-01-19T08:14:42.453Z,3.26
2018-01-19T08:15:42.850Z,3.19
2018-01-19T08:16:42.763Z,3.3
2018-01-19T08:17:43.287Z,3.35
2018-01-19T08:18:43.411Z,3.29
2018-01-19T08:19:43.840Z,3.29
2018-01-19T08:20:45.015Z,3.34
2018-01-19T08:21:43.786Z,3.35
2018-01-19T08:22:44.144Z,3.35
2018-01-19T08:23:43.855Z,3.34
2018-01-19T08:24:43.910Z,3.24
2018-01-19T08:25:43.863Z,3.2
2018-01-19T08:26:43.953Z,3.21
2018-01-19T08:27:44.341Z,3.26
2018-01-19T08:28:44.035Z,3.34
2018-01-19T08:29:44.162Z,3.17
2018-01-19T08:30:44.269Z,3.2
2018-01-19T08:31:44.045Z,3.35
2018-01-19T08:32:44.276Z,3.34
2018-01-19T08:33:44.172Z,3.34
2018-01-19T08:34:44.072Z,3.4
2018-01-19T08:35:45.469Z,3.35
2018-01-19T08:36:44.750Z,3.35
2018-01-19T08:37:44.817Z,3.43
2018-01-19T08:38:44.595Z,3.46
2018-01-19T08:39:45.206Z,3.43
2018-01-19T08:40:45.303Z,3.42
2018-01-19T08:41:45.129Z,3.48
2018-01-19T08:42:45.410Z,3.48
2018-01-19T08:43:45.500Z,3.43
2018-01-19T08:44:45.425Z,3.46
2018-01-19T08:45:45.346Z,3.53
2018-01-19T08:46:45.504Z,3.51
2018-01-19T08:47:45.517Z,3.53
2018-01-19T08:48:45.514Z,3.56
2018-01-19T08:49:45.696Z,3.57
2018-01-19T08:50:45.602Z,3.63
2018-01-19T08:51:45.796Z,3.6
2018-01-19T08:52:46.359Z,3.63
2018-01-19T08:53:46.141Z,3.67
2018-01-19T08:54:46.433Z,3.61
2018-01-19T08:55:46.213Z,3.69
2018-01-19T08:56:46.281Z,3.63
2018-01-19T08:57:46.431Z,3.67
2018-01-19T08:58:46.526Z,3.78
2018-01-19T08:59:46.279Z,3.75
2018-01-19T09:00:46.745Z,3.74
2018-01-19T09:01:46.570Z,3.71
2018-01-19T09:02:46.326Z,3.75
2018-01-19T09:03:46.517Z,3.78
2018-01-19T09:04:47.427Z,3.71
2018-01-19T09:05:47.320Z,3.72
2018-01-19T09:06:47.437Z,3.72
2018-01-19T09:07:47.359Z,3.76
2018-01-19T09:08:47.419Z,3.76
2018-01-19T09:09:47.384Z,3.74
2018-01-19T09:10:47.147Z,3.86
2018-01-19T09:11:47.331Z,3.86
2018-01-19T09:12:47.401Z,3.9
2018-01-19T09:13:47.767Z,3.86
2018-01-19T09:14:47.662Z,3.94
2018-01-19T09:15:47.764Z,3.99
2018-01-19T09:16:47.648Z,3.92
2018-01-19T09:17:48.141Z,3.96
2018-01-19T09:18:47.903Z,4.1
2018-01-19T09:19:47.906Z,3.99
2018-01-19T09:20:48.453Z,4.02
2018-01-19T09:21:48.417Z,4.02
2018-01-19T09:22:48.598Z,3.97
2018-01-19T09:23:49.842Z,4
2018-01-19T09:24:50.079Z,4.11
2018-01-19T09:25:49.051Z,4.14
2018-01-19T09:26:48.422Z,4.11
2018-01-19T09:27:48.736Z,4.12
2018-01-19T09:28:48.804Z,4.17
2018-01-19T09:29:49.688Z,4.2
2018-01-19T09:30:49.723Z,4.11
2018-01-19T09:31:50.233Z,4.15
2018-01-19T09:32:49.661Z,4.17
2018-01-19T09:33:49.086Z,4.14
2018-01-19T09:34:49.887Z,4.18
2018-01-19T09:35:50.376Z,4.28
2018-01-19T09:36:51.972Z,4.2
2018-01-19T09:37:51.163Z,4.28
2018-01-19T09:38:50.786Z,4.21
2018-01-19T09:39:50.450Z,4.22
2018-01-19T09:40:50.943Z,4.21
2018-01-19T09:41:51.264Z,4.22
2018-01-19T09:42:51.222Z,4.15
2018-01-19T09:43:51.278Z,4.11
2018-01-19T09:44:51.724Z,4.17
2018-01-19T09:45:50.776Z,4.18
2018-01-19T09:46:51.150Z,4.18
2018-01-19T09:47:51.635Z,4.17
2018-01-19T09:48:51.407Z,4.24
2018-01-19T09:49:51.500Z,4.33
2018-01-19T09:50:51.751Z,4.29
2018-01-19T09:51:51.733Z,4.28
2018-01-19T09:52:52.047Z,4.3
2018-01-19T09:53:51.810Z,4.32
2018-01-19T09:54:52.131Z,4.32
2018-01-19T09:55:52.088Z,4.33
2018-01-19T09:56:51.871Z,4.35
2018-01-19T09:57:52.519Z,4.35
2018-01-19T09:58:51.913Z,4.28
2018-01-19T09:59:52.171Z,4.15
2018-01-19T10:00:52.268Z,4.17
2018-01-19T10:01:51.940Z,4.15
2018-01-19T10:02:52.176Z,4.11
2018-01-19T10:03:52.179Z,4.02
2018-01-19T10:04:52.341Z,4.15
2018-01-19T10:05:52.490Z,4.08
2018-01-19T10:06:52.989Z,4.11
2018-01-19T10:07:53.255Z,4.11
2018-01-19T10:08:52.880Z,4.08
2018-01-19T10:09:52.839Z,4.1
2018-01-19T10:10:53.486Z,4.2
2018-01-19T10:11:53.678Z,4.11
2018-01-19T10:12:54.046Z,4.1
2018-01-19T10:13:54.473Z,4.15
2018-01-19T10:14:54.368Z,4.17
2018-01-19T10:15:54.950Z,4.15
2018-01-19T10:16:55.105Z,4.21
2018-01-19T10:17:54.894Z,4.21
2018-01-19T10:18:55.175Z,4.21
2018-01-19T10:19:55.070Z,4.29
2018-01-19T10:20:55.703Z,4.3
2018-01-19T10:21:55.534Z,4.36
2018-01-19T10:22:55.691Z,4.33
2018-01-19T10:23:55.471Z,4.35
2018-01-19T10:24:55.508Z,4.42
2018-01-19T10:25:55.903Z,4.44
2018-01-19T10:26:56.151Z,4.44
2018-01-19T10:27:56.133Z,4.36
2018-01-19T10:28:56.859Z,4.38
2018-01-19T10:29:57.357Z,4.39
2018-01-19T10:30:57.681Z,4.32
2018-01-19T10:31:57.921Z,4.33
2018-01-19T10:32:57.451Z,4.36
2018-01-19T10:33:57.155Z,4.36
2018-01-19T10:34:57.344Z,4.38
2018-01-19T10:35:57.880Z,4.32
2018-01-19T10:36:57.830Z,4.29
2018-01-19T10:37:57.153Z,4.26
2018-01-19T10:38:57.077Z,4.3
2018-01-19T10:39:57.522Z,4.38
2018-01-19T10:40:57.291Z,4.35
2018-01-19T10:41:57.554Z,4.33
2018-01-19T10:42:57.328Z,4.33
2018-01-19T10:43:57.679Z,4.38
2018-01-19T10:44:57.853Z,4.38
2018-01-19T10:45:57.971Z,4.36
2018-01-19T10:46:58.068Z,4.46
2018-01-19T10:47:57.694Z,4.47
2018-01-19T10:48:58.745Z,4.56
2018-01-19T10:49:58.388Z,4.61
2018-01-19T10:50:57.702Z,4.64
2018-01-19T10:51:58.044Z,4.74
2018-01-19T10:52:57.811Z,4.71
2018-01-19T10:53:57.787Z,4.74
2018-01-19T10:54:57.892Z,4.84
2018-01-19T10:55:58.008Z,4.69
2018-01-19T10:56:58.327Z,4.69
2018-01-19T10:57:58.081Z,4.9
2018-01-19T10:58:58.363Z,4.85
2018-01-19T10:59:58.530Z,4.74
2018-01-19T11:00:58.566Z,4.76
2018-01-19T11:01:58.839Z,4.78
2018-01-19T11:02:58.643Z,4.71
2018-01-19T11:03:59.430Z,4.74
2018-01-19T11:04:59.066Z,4.61
2018-01-19T11:05:59.124Z,4.64
2018-01-19T11:06:59.101Z,4.68
2018-01-19T11:07:59.536Z,4.76
2018-01-19T11:08:59.695Z,4.69
2018-01-19T11:09:59.673Z,4.76
2018-01-19T11:10:59.752Z,4.75
2018-01-19T11:11:59.860Z,4.83
2018-01-19T11:13:00.127Z,4.87
2018-01-19T11:14:00.231Z,4.83
2018-01-19T11:15:00.260Z,4.76
2018-01-19T11:16:01.313Z,4.78
2018-01-19T11:17:01.689Z,4.76
2018-01-19T11:18:01.794Z,4.83
2018-01-19T11:19:01.844Z,4.83
2018-01-19T11:20:02.129Z,4.74
2018-01-19T11:21:02.257Z,4.79
2018-01-19T11:22:02.565Z,4.78
2018-01-19T11:23:02.752Z,4.69
2018-01-19T11:24:02.734Z,4.72
2018-01-19T11:25:03.808Z,4.75
2018-01-19T11:26:02.857Z,4.75
2018-01-19T11:27:02.895Z,4.74
2018-01-19T11:28:03.727Z,4.76
2018-01-19T11:29:03.433Z,4.83
2018-01-19T11:30:03.834Z,4.9
2018-01-19T11:31:04.265Z,4.84
2018-01-19T11:32:04.640Z,4.83
2018-01-19T11:33:05.021Z,4.87
2018-01-19T11:34:05.271Z,4.9
2018-01-19T11:35:04.874Z,4.94
2018-01-19T11:36:05.143Z,4.9
2018-01-19T11:37:05.283Z,4.9
2018-01-19T11:38:05.398Z,4.95
2018-01-19T11:39:05.519Z,5.03
2018-01-19T11:40:05.681Z,5.05
2018-01-19T11:41:06.092Z,5.02
2018-01-19T11:42:06.388Z,5.16
2018-01-19T11:43:06.050Z,5.13
2018-01-19T11:44:05.899Z,5.12
2018-01-19T11:45:06.072Z,5.21
2018-01-19T11:46:07.004Z,5.15
2018-01-19T11:47:05.913Z,5.13
2018-01-19T11:48:06.121Z,5.13
2018-01-19T11:49:06.378Z,5.15
2018-01-19T11:50:06.196Z,5.1
2018-01-19T11:51:06.108Z,5.06
2018-01-19T11:52:06.578Z,5.08
2018-01-19T11:53:06.827Z,4.97
2018-01-19T11:54:06.240Z,4.95
2018-01-19T11:55:07.042Z,5.03
2018-01-19T11:56:06.391Z,5
2018-01-19T11:57:06.139Z,4.97
2018-01-19T11:58:06.228Z,5.08
2018-01-19T11:59:05.997Z,5.03
2018-01-19T12:00:20.836Z,5.02
2018-01-19T12:01:20.867Z,5.05
2018-01-19T12:02:20.885Z,5.02
2018-01-19T12:03:21.352Z,5.05
2018-01-19T12:04:21.108Z,4.97
2018-01-19T12:05:21.393Z,5.06
2018-01-19T12:06:21.388Z,5.06
2018-01-19T12:07:21.967Z,5.05
2018-01-19T12:08:22.010Z,5.05
2018-01-19T12:09:22.036Z,5.16
2018-01-19T12:10:22.572Z,5.24
2018-01-19T12:11:22.535Z,5.05
2018-01-19T12:12:23.155Z,5.06
2018-01-19T12:13:22.744Z,5.15
2018-01-19T12:14:22.305Z,5.09
2018-01-19T12:15:22.735Z,5.23
2018-01-19T12:16:22.497Z,5.24
2018-01-19T12:17:21.970Z,5.23
2018-01-19T12:18:22.454Z,5.36
2018-01-19T12:19:22.372Z,5.33
2018-01-19T12:20:22.541Z,5.24
2018-01-19T12:21:22.874Z,5.28
2018-01-19T12:22:23.269Z,5.15
2018-01-19T12:23:23.285Z,5.15
2018-01-19T12:24:23.395Z,5.12
2018-01-19T12:25:23.177Z,5.12
2018-01-19T12:26:23.698Z,5.09
2018-01-19T12:27:23.991Z,5.09
2018-01-19T12:28:24.302Z,5.09
2018-01-19T12:29:24.426Z,5.09
2018-01-19T12:30:24.446Z,5.09
2018-01-19T12:31:24.521Z,5.05
2018-01-19T12:32:24.653Z,4.98
2018-01-19T12:33:25.078Z,4.98
2018-01-19T12:34:25.068Z,5.02
2018-01-19T12:35:25.376Z,5.05
2018-01-19T12:36:25.495Z,5
2018-01-19T12:37:25.325Z,5.06
2018-01-19T12:38:25.740Z,5.06
2018-01-19T12:39:25.717Z,5.06
2018-01-19T12:40:26.172Z,5.09
2018-01-19T12:41:26.593Z,5.03
2018-01-19T12:42:26.982Z,5.13
2018-01-19T12:43:26.770Z,5.1
2018-01-19T12:44:27.200Z,5.13
2018-01-19T12:45:26.904Z,5.1
2018-01-19T12:46:27.286Z,5.16
2018-01-19T12:47:27.284Z,5.18
2018-01-19T12:48:27.689Z,5.2
2018-01-19T12:49:27.645Z,5.1
2018-01-19T12:50:28.084Z,5.13
2018-01-19T12:51:27.977Z,5.23
2018-01-19T12:52:28.382Z,5.18
2018-01-19T12:53:28.470Z,5.18
2018-01-19T12:54:28.980Z,5.18
2018-01-19T12:55:28.242Z,5.16
2018-01-19T12:56:28.227Z,5.16
2018-01-19T12:57:28.292Z,5.09
2018-01-19T12:58:28.726Z,5.2
2018-01-19T12:59:28.861Z,5.12
2018-01-19T13:00:29.124Z,5.13
2018-01-19T13:01:29.144Z,5.15
2018-01-19T13:02:29.549Z,5.15
2018-01-19T13:03:29.959Z,5.12
2018-01-19T13:04:29.757Z,5.16
2018-01-19T13:05:29.976Z,5.23
2018-01-19T13:06:29.901Z,5.15
2018-01-19T13:07:30.106Z,5.15
2018-01-19T13:08:29.601Z,5.06
2018-01-19T13:09:29.875Z,5.15
2018-01-19T13:10:31.072Z,5.08
2018-01-19T13:11:30.410Z,5.08
2018-01-19T13:12:30.426Z,5.05
2018-01-19T13:13:30.819Z,5.08
2018-01-19T13:14:30.907Z,5.21
2018-01-19T13:15:31.307Z,5.13
2018-01-19T13:16:31.349Z,5.1
2018-01-19T13:17:31.720Z,5.15
2018-01-19T13:18:32.058Z,5.2
2018-01-19T13:19:31.816Z,5.13
2018-01-19T13:20:32.256Z,5.2
2018-01-19T13:21:32.660Z,5.15
2018-01-19T13:22:32.989Z,5.13
2018-01-19T13:23:33.196Z,5.12